createdAt,value
2022-09-24T00:01:51.681Z,4.77
2022-09-24T00:04:20.168Z,4.87
2022-09-24T00:06:49.461Z,4.70
2022-09-24T00:09:22.010Z,4.67
2022-09-24T00:11:50.482Z,4.93
2022-09-24T00:14:19.712Z,4.60
2022-09-24T00:16:47.659Z,5.20
2022-09-24T00:19:15.861Z,5.13
2022-09-24T00:21:43.777Z,4.60
2022-09-24T00:24:36.763Z,5.17
2022-09-24T00:27:05.757Z,4.73
2022-09-24T00:29:36.221Z,5.40
2022-09-24T00:32:05.011Z,5.50
2022-09-24T00:34:32.773Z,5.10
2022-09-24T00:37:00.704Z,5.87
2022-09-24T00:39:28.703Z,5.40
2022-09-24T00:41:56.509Z,5.67
2022-09-24T00:44:54.223Z,5.80
2022-09-24T00:47:29.800Z,5.57
2022-09-24T00:50:08.056Z,5.47
2022-09-24T00:52:39.385Z,5.93
2022-09-24T00:55:08.338Z,6.10
2022-09-24T00:57:36.177Z,5.97
2022-09-24T01:00:07.035Z,6.60
2022-09-24T01:02:37.397Z,6.70
2022-09-24T01:05:06.018Z,6.00
2022-09-24T01:07:35.274Z,5.73
2022-09-24T01:10:03.255Z,5.90
2022-09-24T01:12:41.460Z,6.47
2022-09-24T01:15:21.296Z,6.07
2022-09-24T01:17:56.761Z,6.07
2022-09-24T01:20:39.749Z,6.20
2022-09-24T01:23:22.489Z,6.10
2022-09-24T01:26:07.867Z,6.33
2022-09-24T01:28:52.322Z,6.40
2022-09-24T01:31:26.629Z,5.90
2022-09-24T01:33:57.012Z,6.30
2022-09-24T01:36:27.434Z,6.10
2022-09-24T01:38:58.520Z,6.43
2022-09-24T01:41:26.343Z,5.60
2022-09-24T01:43:54.860Z,6.27
2022-09-24T01:46:25.081Z,6.30
2022-09-24T01:48:53.366Z,6.13
2022-09-24T01:51:26.055Z,5.90
2022-09-24T01:53:58.625Z,6.50
2022-09-24T01:56:29.445Z,6.10
2022-09-24T01:59:02.739Z,6.50
2022-09-24T02:01:36.216Z,6.37
2022-09-24T02:04:09.266Z,5.60
2022-09-24T02:06:41.346Z,6.40
2022-09-24T02:09:30.443Z,5.97
2022-09-24T02:12:01.408Z,6.10
2022-09-24T02:14:33.535Z,6.00
2022-09-24T02:17:05.084Z,6.50
2022-09-24T02:19:37.374Z,6.27
2022-09-24T02:22:08.012Z,6.37
2022-09-24T02:24:44.769Z,5.60
2022-09-24T02:27:12.697Z,6.53
2022-09-24T02:29:40.854Z,6.43
2022-09-24T02:32:14.359Z,6.40
2022-09-24T02:34:47.130Z,6.60
2022-09-24T02:37:16.829Z,6.50
2022-09-24T02:39:45.235Z,6.30
2022-09-24T02:42:15.595Z,6.47
2022-09-24T02:44:43.344Z,6.10
2022-09-24T02:47:12.438Z,5.90
2022-09-24T02:49:40.236Z,6.23
2022-09-24T02:52:07.978Z,6.03
2022-09-24T02:54:35.732Z,6.30
2022-09-24T02:57:03.464Z,6.00
2022-09-24T02:59:31.197Z,6.00
2022-09-24T03:01:59.043Z,6.60
2022-09-24T03:04:29.381Z,6.30
2022-09-24T03:06:57.229Z,6.43
2022-09-24T03:09:24.976Z,6.43
2022-09-24T03:11:52.653Z,6.53
2022-09-24T03:14:20.378Z,6.33
2022-09-24T03:16:51.962Z,6.90
2022-09-24T03:19:19.718Z,6.60
2022-09-24T03:21:48.756Z,7.27
2022-09-24T03:24:16.446Z,7.43
2022-09-24T03:26:44.180Z,7.30
2022-09-24T03:29:11.986Z,7.00
2022-09-24T03:31:38.817Z,6.83
2022-09-24T03:34:06.553Z,6.87
2022-09-24T03:36:34.358Z,7.63
2022-09-24T03:39:03.868Z,7.70
2022-09-24T03:41:31.599Z,7.03
2022-09-24T03:43:59.421Z,6.50
2022-09-24T03:46:28.399Z,7.47
2022-09-24T03:48:56.693Z,7.10
2022-09-24T03:51:24.479Z,6.90
2022-09-24T03:53:52.389Z,6.40
2022-09-24T03:56:21.769Z,7.10
2022-09-24T03:58:49.497Z,7.20
2022-09-24T04:01:21.241Z,7.33
2022-09-24T04:03:49.729Z,7.03
2022-09-24T04:06:20.910Z,7.30
2022-09-24T04:08:52.691Z,7.07
2022-09-24T04:11:21.838Z,7.27
2022-09-24T04:13:49.543Z,6.93
2022-09-24T04:16:17.576Z,7.13
2022-09-24T04:18:47.935Z,7.20
2022-09-24T04:21:15.894Z,6.97
2022-09-24T04:23:43.626Z,6.33
2022-09-24T04:26:12.409Z,6.77
2022-09-24T04:28:41.475Z,6.40
2022-09-24T04:31:09.382Z,7.17
2022-09-24T04:33:37.187Z,7.00
2022-09-24T04:36:05.135Z,6.80
2022-09-24T04:38:33.057Z,6.63
2022-09-24T04:41:06.260Z,6.50
2022-09-24T04:43:34.194Z,6.93
2022-09-24T04:46:03.814Z,6.90
2022-09-24T04:48:32.248Z,6.83
2022-09-24T04:50:59.927Z,7.00
2022-09-24T04:53:27.651Z,6.17
2022-09-24T04:55:55.361Z,6.10
2022-09-24T04:58:23.120Z,6.17
2022-09-24T05:00:51.182Z,5.87
2022-09-24T05:03:21.189Z,6.60
2022-09-24T05:05:50.028Z,6.10
2022-09-24T05:08:17.859Z,6.60
2022-09-24T05:10:45.637Z,6.50
2022-09-24T05:13:13.377Z,6.73
2022-09-24T05:15:43.360Z,6.70
2022-09-24T05:18:16.258Z,6.53
2022-09-24T05:20:45.341Z,7.13
2022-09-24T05:23:13.077Z,7.20
2022-09-24T05:25:54.700Z,6.90
2022-09-24T05:28:22.481Z,7.03
2022-09-24T05:30:51.365Z,6.53
2022-09-24T05:33:19.050Z,6.93
2022-09-24T05:35:54.505Z,6.70
2022-09-24T05:38:22.857Z,6.53
2022-09-24T05:40:50.739Z,7.03
2022-09-24T05:43:20.247Z,7.37
2022-09-24T05:45:48.993Z,7.73
2022-09-24T05:48:17.649Z,8.13
2022-09-24T05:50:45.369Z,8.70
2022-09-24T05:53:14.456Z,9.57
2022-09-24T05:55:44.331Z,9.80
2022-09-24T05:58:13.267Z,8.17
2022-09-24T06:00:41.273Z,8.03
2022-09-24T06:03:13.609Z,7.43
2022-09-24T06:05:46.281Z,7.27
2022-09-24T06:08:16.440Z,8.53
2022-09-24T06:10:45.436Z,7.77
2022-09-24T06:13:14.175Z,7.83
2022-09-24T06:15:42.380Z,8.37
2022-09-24T06:18:12.152Z,7.60
2022-09-24T06:20:40.124Z,8.87
2022-09-24T06:23:08.184Z,8.33
2022-09-24T06:25:37.414Z,8.00
2022-09-24T06:28:05.869Z,8.13
2022-09-24T06:30:38.281Z,8.23
2022-09-24T06:33:08.457Z,8.10
2022-09-24T06:35:36.940Z,8.10
2022-09-24T06:38:05.510Z,8.30
2022-09-24T06:40:37.156Z,8.33
2022-09-24T06:43:07.517Z,8.67
2022-09-24T06:45:36.142Z,8.00
2022-09-24T06:48:06.677Z,7.33
2022-09-24T06:50:35.907Z,8.33
2022-09-24T06:53:06.658Z,8.60
2022-09-24T06:55:35.081Z,8.10
2022-09-24T06:58:04.378Z,8.50
2022-09-24T07:00:34.067Z,7.93
2022-09-24T07:03:01.935Z,7.90
2022-09-24T07:05:29.830Z,8.30
2022-09-24T07:07:57.641Z,8.87
2022-09-24T07:10:26.515Z,8.23
2022-09-24T07:12:54.491Z,8.23
2022-09-24T07:15:22.346Z,7.93
2022-09-24T07:17:56.125Z,8.33
2022-09-24T07:20:24.341Z,8.40
2022-09-24T07:22:52.742Z,8.10
2022-09-24T07:25:23.621Z,8.10
2022-09-24T07:27:51.639Z,7.63
2022-09-24T07:30:19.601Z,8.20
2022-09-24T07:32:48.307Z,8.07
2022-09-24T07:35:18.978Z,7.83
2022-09-24T07:37:46.977Z,8.00
2022-09-24T07:40:14.956Z,8.33
2022-09-24T07:42:48.421Z,8.13
2022-09-24T07:45:17.230Z,8.80
2022-09-24T07:47:45.184Z,8.00
2022-09-24T07:50:13.744Z,7.63
2022-09-24T07:52:43.088Z,7.17
2022-09-24T07:55:10.962Z,7.83
2022-09-24T07:57:39.371Z,7.40
2022-09-24T08:00:08.269Z,7.03
2022-09-24T08:02:39.385Z,7.27
2022-09-24T08:05:08.135Z,6.27
2022-09-24T08:07:35.895Z,7.03
2022-09-24T08:10:05.696Z,9.33
2022-09-24T08:12:33.445Z,9.93
2022-09-24T08:15:01.219Z,8.30
2022-09-24T08:17:29.037Z,6.63
2022-09-24T08:19:57.044Z,5.93
2022-09-24T08:22:25.057Z,6.60
2022-09-24T08:24:53.335Z,5.93
2022-09-24T08:27:23.794Z,6.20
2022-09-24T08:29:51.902Z,6.07
2022-09-24T08:32:19.756Z,6.20
2022-09-24T08:34:47.645Z,6.23
2022-09-24T08:37:15.463Z,6.33
2022-09-24T08:39:43.405Z,6.30
2022-09-24T08:42:16.685Z,6.97
2022-09-24T08:45:04.798Z,7.03
2022-09-24T08:47:39.390Z,6.77
2022-09-24T08:50:13.505Z,7.30
2022-09-24T08:52:51.813Z,7.27
2022-09-24T08:55:23.541Z,7.17
2022-09-24T08:57:58.756Z,7.97
2022-09-24T09:00:29.620Z,7.10
2022-09-24T09:03:05.244Z,7.80
2022-09-24T09:05:49.969Z,7.53
2022-09-24T09:08:50.089Z,8.07
2022-09-24T09:11:16.341Z,8.00
2022-09-24T09:13:49.707Z,7.67
2022-09-24T09:16:25.975Z,8.17
2022-09-24T09:18:59.520Z,8.30
2022-09-24T09:21:30.636Z,8.77
2022-09-24T09:24:00.861Z,9.23
2022-09-24T09:26:28.594Z,8.33
2022-09-24T09:29:00.999Z,7.43
2022-09-24T09:31:40.634Z,7.67
2022-09-24T09:34:31.195Z,7.20
2022-09-24T09:37:14.020Z,16.03
2022-09-24T09:39:50.799Z,14.13
2022-09-24T09:42:29.654Z,9.10
2022-09-24T09:44:58.095Z,8.00
2022-09-24T09:47:40.146Z,7.57
2022-09-24T09:50:16.449Z,8.23
2022-09-24T09:52:44.441Z,7.47
2022-09-24T09:55:22.950Z,7.40
2022-09-24T09:57:52.327Z,7.67
2022-09-24T10:00:33.935Z,7.70
2022-09-24T10:03:04.173Z,7.50
2022-09-24T10:05:32.472Z,7.70
2022-09-24T10:08:00.255Z,7.47
2022-09-24T10:10:29.357Z,7.40
2022-09-24T10:13:09.118Z,7.53
2022-09-24T10:15:49.336Z,7.53
2022-09-24T10:18:26.808Z,7.80
2022-09-24T10:20:54.571Z,7.97
2022-09-24T10:23:26.556Z,8.50
2022-09-24T10:26:00.441Z,7.80
2022-09-24T10:28:47.116Z,7.70
2022-09-24T10:31:19.074Z,8.20
2022-09-24T10:33:51.229Z,7.80
2022-09-24T10:36:22.117Z,8.03
2022-09-24T10:38:50.161Z,7.53
2022-09-24T10:41:27.110Z,7.27
2022-09-24T10:43:56.462Z,7.50
2022-09-24T10:47:01.778Z,7.57
2022-09-24T10:49:45.132Z,7.07
2022-09-24T10:52:26.421Z,7.47
2022-09-24T10:55:07.105Z,7.80
2022-09-24T10:57:43.421Z,6.97
2022-09-24T11:00:17.152Z,7.40
2022-09-24T11:03:12.845Z,7.23
2022-09-24T11:05:46.449Z,7.00
2022-09-24T11:08:26.207Z,8.80
2022-09-24T11:11:16.835Z,8.87
2022-09-24T11:13:56.030Z,8.97
2022-09-24T11:16:41.280Z,8.80
2022-09-24T11:19:21.288Z,8.03
2022-09-24T11:22:10.947Z,7.50
2022-09-24T11:24:52.253Z,7.90
2022-09-24T11:27:46.338Z,7.80
2022-09-24T11:30:17.203Z,7.43
2022-09-24T11:32:59.231Z,7.43
2022-09-24T11:35:53.972Z,7.30
2022-09-24T11:38:34.273Z,8.43
2022-09-24T11:41:17.359Z,8.10
2022-09-24T11:44:13.511Z,7.47
2022-09-24T11:46:53.395Z,7.50
2022-09-24T11:49:37.351Z,6.87
2022-09-24T11:52:11.305Z,7.30
2022-09-24T11:54:47.721Z,6.87
2022-09-24T11:57:21.656Z,7.80
2022-09-24T11:59:57.284Z,8.40
2022-09-24T12:02:30.254Z,9.10
2022-09-24T12:05:04.074Z,8.60
2022-09-24T12:07:37.816Z,7.83
2022-09-24T12:10:24.915Z,7.70
2022-09-24T12:12:55.176Z,7.30
2022-09-24T12:15:25.289Z,8.60
2022-09-24T12:17:57.990Z,8.83
2022-09-24T12:20:28.641Z,7.70
2022-09-24T12:23:00.941Z,7.47
2022-09-24T12:25:33.670Z,6.33
2022-09-24T12:28:02.624Z,6.77
2022-09-24T12:30:56.390Z,6.63
2022-09-24T12:33:31.333Z,7.10
2022-09-24T12:36:06.917Z,6.10
2022-09-24T12:38:39.389Z,7.40
2022-09-24T12:41:27.686Z,6.50
2022-09-24T12:44:00.955Z,6.90
2022-09-24T12:46:32.450Z,6.63
2022-09-24T12:49:00.750Z,6.50
2022-09-24T12:51:36.677Z,5.70
2022-09-24T12:54:10.244Z,5.87
2022-09-24T12:56:40.991Z,6.30
2022-09-24T12:59:25.366Z,6.70
2022-09-24T13:01:53.159Z,6.50
2022-09-24T13:04:28.682Z,5.73
2022-09-24T13:06:56.621Z,5.20
2022-09-24T13:09:34.233Z,4.70
2022-09-24T13:12:07.023Z,4.50
2022-09-24T13:14:35.783Z,3.73
2022-09-24T13:17:07.605Z,4.00
2022-09-24T13:19:40.773Z,3.57
2022-09-24T13:22:21.820Z,3.67
2022-09-24T13:24:52.607Z,3.43
2022-09-24T13:27:37.699Z,3.00
2022-09-24T13:30:16.122Z,2.97
2022-09-24T13:32:50.189Z,2.70
2022-09-24T13:35:23.644Z,2.63
2022-09-24T13:37:57.305Z,2.60
2022-09-24T13:40:29.229Z,2.50
2022-09-24T13:43:05.328Z,2.70
2022-09-24T13:45:34.984Z,3.13
2022-09-24T13:48:51.546Z,3.27
2022-09-24T13:51:28.887Z,3.97
2022-09-24T15:04:40.061Z,3.60
2022-09-24T15:07:17.693Z,3.70
2022-09-24T15:09:50.357Z,4.40
2022-09-24T15:12:21.554Z,4.10
2022-09-24T15:14:57.601Z,3.77
2022-09-24T15:17:30.359Z,4.60
2022-09-24T15:19:58.067Z,4.10
2022-09-24T15:22:28.074Z,4.07
2022-09-24T15:25:01.156Z,5.27
2022-09-24T15:27:31.490Z,5.30
2022-09-24T15:30:01.196Z,4.47
2022-09-24T15:32:30.880Z,4.40
2022-09-24T15:34:59.278Z,3.90
2022-09-24T15:37:30.633Z,3.50
2022-09-24T15:40:01.272Z,3.77
2022-09-24T15:42:29.201Z,3.43
2022-09-24T15:45:01.630Z,3.57
2022-09-24T15:47:29.683Z,3.03
2022-09-24T15:49:57.458Z,3.20
2022-09-24T15:52:29.599Z,2.97
2022-09-24T15:54:59.828Z,3.10
2022-09-24T15:57:28.202Z,3.40
2022-09-24T15:59:56.298Z,3.17
2022-09-24T16:02:27.950Z,3.43
2022-09-24T16:05:00.127Z,3.40
2022-09-24T16:07:32.034Z,3.80
2022-09-24T16:09:59.849Z,3.50
2022-09-24T16:12:28.193Z,3.60
2022-09-24T16:14:59.141Z,3.50
2022-09-24T16:17:27.070Z,3.10
2022-09-24T16:19:55.242Z,3.20
2022-09-24T16:22:23.360Z,3.10
2022-09-24T16:24:54.078Z,3.40
2022-09-24T16:27:22.322Z,3.20
2022-09-24T16:29:50.247Z,3.60
2022-09-24T16:32:18.062Z,3.60
2022-09-24T16:34:46.465Z,3.60
2022-09-24T16:37:16.601Z,3.27
2022-09-24T16:39:44.468Z,3.90
2022-09-24T16:42:13.582Z,4.37
2022-09-24T16:44:41.506Z,4.33
2022-09-24T16:47:09.626Z,4.70
2022-09-24T16:49:37.424Z,3.90
2022-09-24T16:52:06.180Z,3.50
2022-09-24T16:54:34.485Z,3.30
2022-09-24T16:57:03.413Z,2.90
2022-09-24T16:59:32.999Z,3.00
2022-09-24T17:02:00.931Z,3.30
2022-09-24T17:04:29.818Z,3.23
2022-09-24T17:06:58.314Z,3.40
2022-09-24T17:09:43.524Z,3.30
2022-09-24T17:12:11.614Z,3.20
2022-09-24T17:14:40.713Z,4.20
2022-09-24T17:17:08.530Z,4.90
2022-09-24T17:19:36.273Z,5.07
2022-09-24T17:22:03.982Z,4.43
2022-09-24T17:24:32.489Z,4.50
2022-09-24T17:27:00.740Z,4.97
2022-09-24T17:29:31.631Z,4.97
2022-09-24T17:32:01.197Z,4.97
2022-09-24T17:34:29.070Z,4.97
2022-09-24T17:36:57.406Z,4.50
2022-09-24T17:39:25.273Z,6.60
2022-09-24T17:41:53.020Z,5.30
2022-09-24T17:44:20.753Z,4.43
2022-09-24T17:46:48.576Z,4.70
2022-09-24T17:49:17.758Z,4.30
2022-09-24T17:51:49.272Z,4.80
2022-09-24T17:54:19.036Z,4.90
2022-09-24T17:56:46.853Z,4.67
2022-09-24T17:59:16.166Z,4.40
2022-09-24T18:01:45.465Z,4.70
2022-09-24T18:04:15.099Z,4.70
2022-09-24T18:06:46.059Z,5.30
2022-09-24T18:09:15.684Z,4.80
2022-09-24T18:11:45.241Z,4.70
2022-09-24T18:14:16.748Z,4.60
2022-09-24T18:16:45.318Z,9.67
2022-09-24T18:19:15.646Z,6.57
2022-09-24T18:21:45.249Z,5.20
2022-09-24T18:24:13.013Z,5.60
2022-09-24T18:26:41.452Z,5.43
2022-09-24T18:29:13.749Z,4.93
2022-09-24T18:31:42.150Z,5.13
2022-09-24T18:34:13.084Z,5.70
2022-09-24T18:36:42.233Z,5.83
2022-09-24T18:39:13.599Z,5.90
2022-09-24T18:41:43.328Z,5.43
2022-09-24T18:44:11.845Z,6.07
2022-09-24T18:46:40.090Z,5.47
2022-09-24T18:49:08.043Z,5.80
2022-09-24T18:51:37.719Z,5.33
2022-09-24T18:54:07.502Z,4.70
2022-09-24T18:56:37.292Z,5.57
2022-09-24T18:59:09.714Z,5.80
2022-09-24T19:01:38.010Z,5.57
2022-09-24T19:04:07.044Z,5.97
2022-09-24T19:06:36.072Z,5.60
2022-09-24T19:09:05.707Z,5.80
2022-09-24T19:11:34.415Z,5.20
2022-09-24T19:14:06.396Z,5.80
2022-09-24T19:16:34.995Z,5.50
2022-09-24T19:19:03.107Z,6.00
2022-09-24T19:21:31.502Z,5.50
2022-09-24T19:24:00.602Z,5.50
2022-09-24T19:26:29.913Z,5.40
2022-09-24T19:28:58.882Z,6.03
2022-09-24T19:31:30.649Z,5.73
2022-09-24T19:34:00.070Z,5.80
2022-09-24T19:36:27.791Z,6.20
2022-09-24T19:38:56.082Z,6.50
2022-09-24T19:41:26.215Z,6.67
2022-09-24T19:43:55.068Z,6.50
2022-09-24T19:46:24.297Z,5.93
2022-09-24T19:48:54.884Z,6.40
2022-09-24T19:51:24.672Z,6.27
2022-09-24T19:53:54.267Z,6.03
2022-09-24T19:56:25.302Z,6.20
2022-09-24T19:58:54.091Z,6.13
2022-09-24T20:01:22.926Z,6.47
2022-09-24T20:03:51.748Z,6.33
2022-09-24T20:06:23.591Z,6.40
2022-09-24T20:08:51.320Z,7.67
2022-09-24T20:11:21.169Z,7.80
2022-09-24T20:13:49.300Z,7.70
2022-09-24T20:16:19.991Z,7.10
2022-09-24T20:18:48.414Z,7.27
2022-09-24T20:21:17.142Z,6.93
2022-09-24T20:23:47.155Z,7.10
2022-09-24T20:26:33.385Z,6.70
2022-09-24T20:29:01.935Z,6.50
2022-09-24T20:31:30.454Z,6.43
2022-09-24T20:33:58.457Z,6.47
2022-09-24T20:36:26.205Z,6.07
2022-09-24T20:38:55.556Z,6.80
2022-09-24T20:41:25.254Z,8.00
2022-09-24T20:43:55.418Z,7.00
2022-09-24T20:46:24.713Z,7.90
2022-09-24T20:48:52.814Z,9.07
2022-09-24T20:51:22.216Z,8.00
2022-09-24T20:53:50.444Z,8.10
2022-09-24T20:56:19.596Z,9.37
2022-09-24T20:58:50.061Z,9.33
2022-09-24T21:01:25.199Z,8.97
2022-09-24T21:03:53.162Z,9.63
2022-09-24T21:06:22.900Z,9.50
2022-09-24T21:08:51.961Z,9.63
2022-09-24T21:11:22.961Z,8.63
2022-09-24T21:13:53.005Z,8.40
2022-09-24T21:16:23.337Z,9.07
2022-09-24T21:18:54.420Z,8.43
2022-09-24T21:21:24.025Z,8.57
2022-09-24T21:23:53.297Z,9.67
2022-09-24T21:26:23.782Z,9.07
2022-09-24T21:28:53.651Z,8.00
2022-09-24T21:31:24.138Z,8.73
2022-09-24T21:33:53.556Z,8.40
2022-09-24T21:36:24.171Z,8.63
2022-09-24T21:38:55.297Z,7.97
2022-09-24T21:41:26.006Z,8.27
2022-09-24T21:43:55.448Z,8.50
2022-09-24T21:46:23.866Z,7.73
2022-09-24T21:48:52.219Z,8.40
2022-09-24T21:51:21.714Z,7.67
2022-09-24T21:53:49.941Z,8.47
2022-09-24T21:56:18.686Z,7.83
2022-09-24T21:58:47.839Z,8.30
2022-09-24T22:01:17.994Z,8.20
2022-09-24T22:03:46.626Z,7.70
2022-09-24T22:06:15.146Z,8.57
2022-09-24T22:08:45.388Z,7.97
2022-09-24T22:11:13.716Z,8.60
2022-09-24T22:13:41.980Z,7.60
2022-09-24T22:16:12.061Z,7.63
2022-09-24T22:18:40.642Z,7.50
2022-09-24T22:21:10.448Z,7.27
2022-09-24T22:23:38.795Z,7.20
2022-09-24T22:26:07.957Z,7.63
2022-09-24T22:28:37.775Z,7.57
2022-09-24T22:31:07.596Z,6.97
2022-09-24T22:33:51.042Z,7.00
2022-09-24T22:36:19.305Z,7.00
2022-09-24T22:38:48.162Z,6.77
2022-09-24T22:41:16.271Z,6.90
2022-09-24T22:43:44.013Z,6.93
2022-09-24T22:46:14.188Z,6.70
2022-09-24T22:48:43.829Z,6.73
2022-09-24T22:51:11.588Z,6.60
2022-09-24T22:53:40.776Z,6.57
2022-09-24T22:56:11.286Z,6.80
2022-09-24T22:58:41.181Z,6.67
2022-09-24T23:01:10.158Z,6.67
2022-09-24T23:03:38.699Z,6.70
2022-09-24T23:06:09.335Z,6.70
2022-09-24T23:08:40.723Z,6.60
2022-09-24T23:11:10.197Z,6.87
2022-09-24T23:13:38.825Z,6.40
2022-09-24T23:16:12.161Z,5.80
2022-09-24T23:18:40.638Z,6.10
2022-09-24T23:21:12.326Z,6.10
2022-09-24T23:23:40.471Z,6.50
2022-09-24T23:26:16.228Z,6.43
2022-09-24T23:28:45.494Z,6.33
2022-09-24T23:31:14.798Z,6.40
2022-09-24T23:33:43.456Z,6.33
2022-09-24T23:36:14.950Z,6.07
2022-09-24T23:38:43.613Z,5.97
2022-09-24T23:41:13.108Z,5.43
2022-09-24T23:43:42.247Z,5.27
2022-09-24T23:46:11.354Z,5.83
2022-09-24T23:48:39.309Z,5.47
2022-09-24T23:51:07.933Z,5.20
2022-09-24T23:53:37.726Z,5.23
2022-09-24T23:56:07.298Z,4.77
2022-09-24T23:58:35.518Z,4.87
